Time;durP1;ratioP1;P1;durP2;ratioP2;P2;SDS_P1;SDS_P2;PMS_P1;PMS_P2;Temp;Humidity;BMP_temperature;BMP_pressure;BME280_temperature;BME280_humidity;BME280_pressure;Samples;Min_cycle;Max_cycle;Signal;HPM_P1;HPM_P2
2021/04/27 00:00:58;;;;;;;11.63;10.03;;;9.20;62.50;;;;;;5036047;28;20186;-80
2021/04/27 00:03:23;;;;;;;11.13;9.73;;;9.20;62.80;;;;;;5053452;28;20271;-79
2021/04/27 00:05:49;;;;;;;11.67;10.67;;;9.20;63.10;;;;;;5052914;28;20178;-80
2021/04/27 00:08:15;;;;;;;10.03;9.13;;;9.00;63.20;;;;;;5035623;28;20189;-80
2021/04/27 00:10:41;;;;;;;9.97;8.10;;;9.00;63.50;;;;;;5034907;28;20430;-80
2021/04/27 00:13:09;;;;;;;14.33;9.50;;;8.90;63.00;;;;;;5053314;28;20176;-80
2021/04/27 00:15:35;;;;;;;11.93;10.83;;;8.70;63.50;;;;;;5052673;28;20792;-80
2021/04/27 00:18:01;;;;;;;9.93;8.20;;;8.60;63.60;;;;;;5053405;28;20408;-80
2021/04/27 00:20:27;;;;;;;10.87;9.77;;;8.70;63.90;;;;;;5053387;28;20416;-80
2021/04/27 00:22:56;;;;;;;15.10;11.57;;;8.80;64.50;;;;;;5034475;28;20486;-80
2021/04/27 00:25:24;;;;;;;10.03;8.90;;;8.90;65.00;;;;;;5051590;28;20222;-80
2021/04/27 00:27:52;;;;;;;12.53;10.87;;;8.90;65.30;;;;;;5051027;28;20460;-79
2021/04/27 00:30:23;;;;;;;11.80;10.03;;;9.00;65.40;;;;;;5051911;28;20542;-80
2021/04/27 00:32:49;;;;;;;9.90;7.73;;;9.00;65.40;;;;;;5052432;28;20446;-80
2021/04/27 00:35:15;;;;;;;13.07;9.53;;;9.00;65.00;;;;;;5072500;28;20437;-79
2021/04/27 00:37:41;;;;;;;12.47;10.50;;;9.00;63.90;;;;;;5072237;28;20399;-80
2021/04/27 00:40:09;;;;;;;10.43;9.43;;;9.00;63.90;;;;;;5073001;28;20423;-80
2021/04/27 00:42:39;;;;;;;11.73;9.43;;;9.00;64.20;;;;;;5070687;28;20403;-82
2021/04/27 00:45:07;;;;;;;10.03;8.90;;;9.00;64.00;;;;;;5072732;28;20420;-80
2021/04/27 00:47:35;;;;;;;12.30;9.90;;;9.00;63.30;;;;;;5072287;28;20382;-84
2021/04/27 00:50:01;;;;;;;13.70;9.40;;;8.80;63.10;;;;;;5072318;28;20451;-80
2021/04/27 00:52:27;;;;;;;10.33;8.20;;;8.80;63.60;;;;;;5072507;28;20487;-80
2021/04/27 00:54:53;;;;;;;14.30;9.40;;;8.80;64.30;;;;;;5071808;28;20431;-80
2021/04/27 00:57:20;;;;;;;9.50;8.60;;;8.80;64.40;;;;;;5072131;28;20663;-80
2021/04/27 00:59:46;;;;;;;9.67;8.80;;;8.70;64.20;;;;;;5071554;28;20631;-79
2021/04/27 01:02:12;;;;;;;11.57;9.53;;;8.70;64.30;;;;;;5071185;28;20397;-79
2021/04/27 01:04:38;;;;;;;9.53;8.47;;;8.50;64.20;;;;;;5070595;28;20974;-80
2021/04/27 01:07:04;;;;;;;9.50;8.40;;;8.60;64.80;;;;;;5072663;28;20513;-80
2021/04/27 01:09:31;;;;;;;9.33;8.17;;;8.60;65.70;;;;;;5072105;28;20226;-80
2021/04/27 01:12:06;;;;;;;9.50;8.60;;;8.60;67.10;;;;;;5071679;28;20405;-80
2021/04/27 01:14:33;;;;;;;9.63;8.73;;;8.60;67.10;;;;;;5071298;28;20381;-80
2021/04/27 01:17:06;;;;;;;10.90;8.90;;;8.60;66.30;;;;;;5071716;28;20428;-80
2021/04/27 01:20:04;;;;;;;11.07;9.00;;;8.60;66.70;;;;;;5070943;28;20477;-79
2021/04/27 01:22:58;;;;;;;10.90;9.00;;;8.60;67.20;;;;;;5068128;28;20412;-80
2021/04/27 01:25:43;;;;;;;11.77;8.83;;;8.60;66.90;;;;;;5072003;28;20390;-80
2021/04/27 01:28:10;;;;;;;10.20;9.17;;;8.60;67.70;;;;;;5071111;28;20820;-80
2021/04/27 01:30:38;;;;;;;10.33;8.47;;;8.50;66.70;;;;;;5071753;28;20780;-84
2021/04/27 01:33:10;;;;;;;10.80;8.40;;;8.40;66.20;;;;;;5070759;28;20389;-79
2021/04/27 01:35:37;;;;;;;13.63;8.97;;;8.40;66.10;;;;;;5071725;28;20422;-84
2021/04/27 01:38:04;;;;;;;9.10;8.20;;;8.30;65.90;;;;;;5070652;28;20415;-79
2021/04/27 01:40:31;;;;;;;10.57;8.43;;;8.30;66.00;;;;;;5072203;28;20421;-80
2021/04/27 01:42:58;;;;;;;9.33;7.63;;;8.50;67.30;;;;;;5071264;28;21052;-80
2021/04/27 01:45:27;;;;;;;8.70;7.80;;;8.40;68.30;;;;;;5050740;28;20414;-80
2021/04/27 01:47:57;;;;;;;9.63;8.80;;;8.40;67.20;;;;;;5051303;28;20495;-80
2021/04/27 01:50:24;;;;;;;10.37;9.47;;;8.50;67.40;;;;;;5050722;28;20981;-80
2021/04/27 01:52:51;;;;;;;10.83;8.03;;;8.50;67.50;;;;;;5051380;28;20427;-80
2021/04/27 01:55:19;;;;;;;9.97;9.07;;;8.50;68.40;;;;;;5050687;28;20412;-80
2021/04/27 01:57:45;;;;;;;10.93;9.97;;;8.40;68.40;;;;;;5057794;28;20501;-80
2021/04/27 02:00:13;;;;;;;9.87;8.97;;;8.40;67.80;;;;;;5072028;28;20418;-79
2021/04/27 02:02:39;;;;;;;11.30;8.73;;;8.40;68.30;;;;;;5071431;28;20879;-86
2021/04/27 02:05:06;;;;;;;9.27;8.27;;;8.40;67.90;;;;;;5071940;28;20408;-80
2021/04/27 02:07:34;;;;;;;9.00;7.90;;;8.40;68.30;;;;;;5072005;28;20406;-80
2021/04/27 02:10:05;;;;;;;8.47;7.70;;;8.30;68.10;;;;;;5073585;28;20473;-80
2021/04/27 02:12:33;;;;;;;11.27;8.20;;;8.30;69.00;;;;;;5074829;28;20854;-80
2021/04/27 02:14:59;;;;;;;11.80;8.47;;;8.30;68.90;;;;;;5073526;28;20405;-80
2021/04/27 02:17:33;;;;;;;9.80;8.83;;;8.20;68.80;;;;;;5075789;28;20393;-80
2021/04/27 02:20:01;;;;;;;9.40;8.47;;;8.20;69.20;;;;;;5074900;28;20426;-80
2021/04/27 02:22:29;;;;;;;9.97;8.47;;;8.10;69.30;;;;;;5074966;28;20937;-80
2021/04/27 02:24:56;;;;;;;10.43;9.40;;;8.10;70.00;;;;;;5058572;28;20430;-80
2021/04/27 02:27:23;;;;;;;8.73;7.80;;;8.10;69.90;;;;;;5055334;28;20870;-80
2021/04/27 02:29:50;;;;;;;9.93;8.17;;;8.10;70.90;;;;;;5054398;28;20426;-80
2021/04/27 02:32:16;;;;;;;12.63;9.30;;;8.00;70.60;;;;;;5055187;28;20377;-79
2021/04/27 02:34:43;;;;;;;10.33;9.20;;;8.00;70.90;;;;;;5054588;28;20722;-85
2021/04/27 02:37:09;;;;;;;12.00;8.90;;;8.00;71.80;;;;;;5055063;28;20175;-79
2021/04/27 02:39:35;;;;;;;10.30;9.40;;;8.00;72.00;;;;;;5054686;28;20427;-79
2021/04/27 02:42:03;;;;;;;10.20;8.90;;;7.90;72.20;;;;;;5054449;28;20409;-80
2021/04/27 02:44:29;;;;;;;10.13;9.10;;;8.00;71.90;;;;;;5055223;28;20179;-80
2021/04/27 02:46:55;;;;;;;10.50;9.40;;;7.80;71.20;;;;;;5053473;28;20423;-80
2021/04/27 02:49:20;;;;;;;11.63;10.43;;;7.90;71.20;;;;;;5055139;28;20416;-80
2021/04/27 02:51:46;;;;;;;9.90;7.90;;;7.80;71.30;;;;;;5053980;28;20251;-80
2021/04/27 02:54:12;;;;;;;9.10;8.20;;;7.80;72.00;;;;;;5036625;28;20194;-80
2021/04/27 02:56:38;;;;;;;9.23;8.30;;;7.80;72.50;;;;;;5036986;28;20179;-79
2021/04/27 02:59:05;;;;;;;8.83;7.80;;;7.90;72.50;;;;;;5054214;28;20182;-85
2021/04/27 03:01:30;;;;;;;9.57;8.53;;;7.80;70.40;;;;;;5036848;28;20476;-86
2021/04/27 03:03:56;;;;;;;10.13;9.13;;;7.90;69.40;;;;;;5054197;28;20575;-80
2021/04/27 03:06:22;;;;;;;8.50;7.20;;;7.90;69.70;;;;;;5054862;28;20181;-79
2021/04/27 03:08:48;;;;;;;8.20;7.50;;;7.90;70.40;;;;;;5052679;28;20211;-79
2021/04/27 03:11:14;;;;;;;9.00;8.10;;;7.90;69.40;;;;;;5054379;28;20436;-79
2021/04/27 03:13:40;;;;;;;8.33;7.63;;;7.80;68.20;;;;;;5053996;28;20180;-82
2021/04/27 03:16:06;;;;;;;7.87;7.10;;;7.80;67.10;;;;;;5036311;28;20420;-79
2021/04/27 03:18:32;;;;;;;7.77;7.07;;;7.70;67.00;;;;;;5054279;28;20437;-79
2021/04/27 03:20:58;;;;;;;8.97;7.10;;;7.60;66.20;;;;;;5052806;28;20706;-80
2021/04/27 03:23:24;;;;;;;7.63;6.73;;;7.50;66.40;;;;;;5054240;28;20614;-79
2021/04/27 03:25:50;;;;;;;6.67;6.17;;;7.50;66.90;;;;;;5053499;28;20404;-80
2021/04/27 03:28:16;;;;;;;7.20;6.53;;;7.50;66.40;;;;;;5036661;28;20627;-79
2021/04/27 03:30:43;;;;;;;7.20;6.50;;;7.50;66.10;;;;;;5053968;28;20436;-82
2021/04/27 03:33:09;;;;;;;7.30;6.43;;;7.60;66.60;;;;;;5053828;28;20408;-80
2021/04/27 03:35:35;;;;;;;7.53;6.33;;;7.60;67.80;;;;;;5053982;28;20882;-80
2021/04/27 03:38:00;;;;;;;8.97;6.30;;;7.70;67.90;;;;;;5035562;28;20172;-81
2021/04/27 03:40:26;;;;;;;8.57;7.73;;;7.80;67.00;;;;;;5054343;28;20190;-80
2021/04/27 03:42:52;;;;;;;6.73;6.00;;;7.60;65.00;;;;;;5053325;28;20171;-80
2021/04/27 03:45:23;;;;;;;8.10;6.43;;;7.40;64.40;;;;;;5036330;28;20387;-80
2021/04/27 03:47:49;;;;;;;7.80;7.03;;;7.30;64.80;;;;;;5018392;28;20183;-81
2021/04/27 03:50:19;;;;;;;6.53;6.03;;;7.30;65.00;;;;;;5054185;28;20474;-80
2021/04/27 03:52:46;;;;;;;9.00;8.10;;;7.10;65.30;;;;;;5035368;28;20396;-84
2021/04/27 03:55:12;;;;;;;6.03;5.33;;;7.20;66.00;;;;;;5053176;28;20427;-80
2021/04/27 03:57:38;;;;;;;6.43;5.43;;;7.20;65.50;;;;;;5036110;28;20376;-80
2021/04/27 04:00:06;;;;;;;8.40;6.20;;;7.10;65.40;;;;;;5034785;28;20912;-80
2021/04/27 04:02:32;;;;;;;7.37;6.53;;;7.10;65.10;;;;;;5053604;28;20234;-80
2021/04/27 04:04:58;;;;;;;7.67;7.17;;;7.00;65.30;;;;;;5035352;28;20405;-80
2021/04/27 04:07:24;;;;;;;6.70;6.10;;;7.00;65.60;;;;;;5053706;28;20470;-80
2021/04/27 04:09:49;;;;;;;9.33;8.63;;;7.00;65.50;;;;;;5034967;28;20557;-80
2021/04/27 04:12:15;;;;;;;7.23;6.63;;;6.90;65.30;;;;;;5053420;28;20417;-80
2021/04/27 04:14:41;;;;;;;7.03;6.33;;;7.10;65.80;;;;;;5035761;28;20204;-80
2021/04/27 04:17:07;;;;;;;8.13;6.53;;;7.00;65.50;;;;;;5018262;28;20947;-80
2021/04/27 04:19:33;;;;;;;7.23;6.53;;;7.00;65.10;;;;;;5053410;28;20205;-80
2021/04/27 04:21:59;;;;;;;7.00;5.93;;;7.00;65.00;;;;;;5052574;28;20445;-80
2021/04/27 04:24:25;;;;;;;6.03;5.57;;;7.00;65.00;;;;;;5055408;28;20462;-80
2021/04/27 04:26:50;;;;;;;6.53;6.03;;;7.00;64.80;;;;;;5072246;28;20186;-80
2021/04/27 04:29:16;;;;;;;8.60;7.43;;;6.90;65.10;;;;;;5073189;28;20179;-80
2021/04/27 04:31:42;;;;;;;16.37;11.83;;;6.90;65.30;;;;;;5072901;28;20201;-80
2021/04/27 04:34:08;;;;;;;8.27;7.57;;;7.00;65.30;;;;;;5072232;28;20427;-80
2021/04/27 04:36:33;;;;;;;7.93;7.13;;;7.00;65.30;;;;;;5072949;28;20181;-80
2021/04/27 04:38:59;;;;;;;6.47;5.87;;;7.00;65.70;;;;;;5071963;28;20182;-80
2021/04/27 04:41:25;;;;;;;7.97;7.20;;;7.10;65.30;;;;;;5071828;28;20419;-80
2021/04/27 04:43:50;;;;;;;6.20;5.60;;;7.10;65.00;;;;;;5070930;28;20228;-80
2021/04/27 04:46:17;;;;;;;8.00;7.30;;;7.00;64.90;;;;;;5072419;28;20578;-80
2021/04/27 04:48:42;;;;;;;9.30;6.80;;;7.00;65.30;;;;;;5072851;28;20253;-80
2021/04/27 04:51:08;;;;;;;8.00;7.40;;;7.00;64.90;;;;;;5070879;28;20517;-80
2021/04/27 04:53:34;;;;;;;10.03;5.80;;;6.80;64.90;;;;;;5071518;28;20618;-80
2021/04/27 04:56:00;;;;;;;6.07;5.53;;;6.80;65.30;;;;;;5071523;28;20954;-81
2021/04/27 04:58:25;;;;;;;7.43;6.73;;;6.80;65.40;;;;;;5034867;28;20186;-80
2021/04/27 05:00:51;;;;;;;7.93;6.80;;;6.90;65.60;;;;;;5059063;28;20188;-80
2021/04/27 05:03:17;;;;;;;9.67;6.80;;;7.00;65.20;;;;;;5071432;28;20386;-80
2021/04/27 05:05:44;;;;;;;8.53;7.93;;;7.00;64.80;;;;;;5072500;28;20643;-81
2021/04/27 05:08:12;;;;;;;6.60;6.00;;;7.20;65.00;;;;;;5071430;28;20198;-80
2021/04/27 05:10:38;;;;;;;6.67;6.17;;;7.20;64.10;;;;;;5071939;28;20815;-80
2021/04/27 05:13:04;;;;;;;7.33;6.10;;;7.40;64.10;;;;;;5070270;28;20468;-80
2021/04/27 05:15:31;;;;;;;9.67;7.80;;;7.40;63.70;;;;;;5071931;28;20403;-80
2021/04/27 05:17:57;;;;;;;6.80;6.20;;;7.40;63.20;;;;;;5071175;28;20399;-80
2021/04/27 05:20:24;;;;;;;6.47;5.87;;;7.40;63.20;;;;;;5070933;28;20429;-80
2021/04/27 05:22:50;;;;;;;6.50;6.10;;;7.50;63.30;;;;;;5072049;28;20418;-83
2021/04/27 05:25:17;;;;;;;6.83;6.13;;;7.40;62.50;;;;;;5052579;28;20456;-80
2021/04/27 05:27:43;;;;;;;7.17;6.00;;;7.40;63.40;;;;;;5052161;28;20921;-80
2021/04/27 05:30:11;;;;;;;6.03;5.43;;;7.50;63.90;;;;;;5050959;28;20439;-80
2021/04/27 05:32:38;;;;;;;7.27;6.70;;;7.60;62.70;;;;;;5034598;28;20409;-80
2021/04/27 05:35:05;;;;;;;6.50;6.00;;;7.50;62.30;;;;;;5033289;28;20396;-80
2021/04/27 05:37:31;;;;;;;6.90;6.40;;;7.50;62.50;;;;;;5034003;28;20418;-80
2021/04/27 05:39:56;;;;;;;6.70;6.17;;;7.70;62.50;;;;;;5051082;28;21004;-82
2021/04/27 05:42:22;;;;;;;5.73;5.23;;;7.90;62.30;;;;;;5052342;28;20191;-80
2021/04/27 05:44:48;;;;;;;6.37;5.80;;;7.90;60.90;;;;;;5033555;28;20390;-80
2021/04/27 05:47:14;;;;;;;7.63;7.03;;;7.80;61.30;;;;;;5050223;28;20200;-81
2021/04/27 05:49:40;;;;;;;7.97;7.27;;;8.00;60.90;;;;;;5050829;28;20863;-80
2021/04/27 05:52:06;;;;;;;6.93;5.90;;;7.90;60.60;;;;;;5033601;28;20394;-81
2021/04/27 05:54:33;;;;;;;7.87;6.13;;;7.70;60.80;;;;;;5016912;28;20609;-81
2021/04/27 05:56:59;;;;;;;5.70;5.30;;;7.70;61.50;;;;;;5051228;28;20418;-80
2021/04/27 05:59:24;;;;;;;7.27;6.17;;;7.60;61.50;;;;;;5051293;28;20419;-80
2021/04/27 06:01:50;;;;;;;7.77;5.93;;;7.60;62.70;;;;;;5051306;28;20454;-84
2021/04/27 06:04:17;;;;;;;6.53;5.93;;;7.70;61.80;;;;;;5051740;28;20205;-81
2021/04/27 06:06:42;;;;;;;7.03;6.47;;;7.80;61.90;;;;;;5051498;28;20318;-80
2021/04/27 06:09:09;;;;;;;6.83;6.23;;;7.90;60.90;;;;;;5051062;28;20981;-81
2021/04/27 06:11:35;;;;;;;6.70;6.10;;;8.00;60.00;;;;;;5051282;28;20212;-80
2021/04/27 06:14:02;;;;;;;6.03;5.53;;;8.00;60.60;;;;;;5051217;28;20385;-80
2021/04/27 06:16:27;;;;;;;6.30;5.20;;;8.10;60.60;;;;;;5051192;28;20557;-80
2021/04/27 06:18:54;;;;;;;7.00;6.40;;;8.20;60.80;;;;;;5050570;28;20483;-80
2021/04/27 06:21:20;;;;;;;9.47;7.50;;;8.40;61.70;;;;;;5051156;28;20185;-80
2021/04/27 06:23:46;;;;;;;5.77;5.20;;;8.60;60.50;;;;;;5050927;28;20446;-80
2021/04/27 06:26:12;;;;;;;6.70;6.00;;;8.80;59.30;;;;;;5050732;28;21091;-80
2021/04/27 06:28:38;;;;;;;8.93;5.93;;;8.90;59.20;;;;;;5050961;28;20182;-80
2021/04/27 06:31:03;;;;;;;5.83;5.23;;;8.90;58.10;;;;;;5050759;28;20209;-81
2021/04/27 06:33:30;;;;;;;7.50;4.83;;;9.10;58.90;;;;;;5051563;28;20487;-80
2021/04/27 06:35:56;;;;;;;5.20;4.80;;;9.00;58.40;;;;;;5032101;28;20269;-80
2021/04/27 06:38:22;;;;;;;5.13;4.63;;;9.10;58.80;;;;;;5051442;28;20515;-80
2021/04/27 06:40:49;;;;;;;4.70;4.30;;;9.30;59.10;;;;;;5051222;28;20179;-81
2021/04/27 06:43:16;;;;;;;5.20;4.80;;;9.50;59.00;;;;;;5032911;28;20288;-81
2021/04/27 06:45:42;;;;;;;5.70;4.60;;;9.70;58.00;;;;;;5051294;28;20391;-82
2021/04/27 06:48:08;;;;;;;6.33;4.93;;;9.80;59.20;;;;;;5050686;28;20408;-81
2021/04/27 06:50:36;;;;;;;5.53;4.90;;;9.90;58.10;;;;;;5033431;28;20448;-82
2021/04/27 06:53:02;;;;;;;4.77;4.47;;;10.00;57.10;;;;;;5051452;28;20988;-82
2021/04/27 06:55:28;;;;;;;5.30;4.40;;;10.00;55.30;;;;;;5051566;28;20407;-82
2021/04/27 06:58:02;;;;;;;6.60;4.87;;;10.20;55.50;;;;;;5054692;28;20412;-82
2021/04/27 07:00:28;;;;;;;4.10;3.80;;;10.20;54.50;;;;;;5055117;28;20389;-82
2021/04/27 07:02:53;;;;;;;3.73;3.43;;;10.40;56.10;;;;;;5054452;28;20756;-81
2021/04/27 07:05:19;;;;;;;4.47;4.07;;;10.50;54.50;;;;;;5055293;28;20416;-82
2021/04/27 07:07:45;;;;;;;4.80;4.50;;;10.60;53.10;;;;;;5054484;28;20269;-82
2021/04/27 07:10:11;;;;;;;3.80;3.50;;;10.70;52.70;;;;;;5067618;28;20712;-81
2021/04/27 07:12:37;;;;;;;4.10;3.80;;;10.90;52.90;;;;;;5047670;28;20522;-81
2021/04/27 07:15:03;;;;;;;3.97;3.77;;;11.00;53.00;;;;;;5054327;28;20191;-82
2021/04/27 07:17:29;;;;;;;3.43;3.23;;;11.10;51.30;;;;;;5054594;28;20177;-82
2021/04/27 07:19:58;;;;;;;5.60;3.87;;;11.20;49.10;;;;;;5053828;28;20444;-82
2021/04/27 07:22:26;;;;;;;4.00;3.70;;;11.30;48.60;;;;;;5054720;28;20532;-81
2021/04/27 07:24:52;;;;;;;4.60;4.30;;;11.30;47.20;;;;;;5055187;28;20448;-83
2021/04/27 07:27:18;;;;;;;6.03;3.57;;;11.40;47.50;;;;;;5054206;28;20469;-88
2021/04/27 07:29:44;;;;;;;3.37;3.17;;;11.60;48.40;;;;;;5054882;28;20420;-85
2021/04/27 07:32:13;;;;;;;3.77;3.57;;;11.70;47.80;;;;;;5054162;28;20167;-85
2021/04/27 07:34:40;;;;;;;3.87;3.67;;;11.90;49.50;;;;;;5054485;28;20173;-88
2021/04/27 07:37:06;;;;;;;3.87;3.67;;;12.00;46.00;;;;;;5053822;28;20795;-81
2021/04/27 07:39:32;;;;;;;5.77;5.37;;;12.00;46.00;;;;;;5054284;28;20744;-82
2021/04/27 07:41:58;;;;;;;3.80;3.50;;;12.20;45.20;;;;;;5053654;28;20418;-81
2021/04/27 07:44:24;;;;;;;3.43;3.23;;;12.20;45.90;;;;;;5036779;28;20925;-82
2021/04/27 07:46:50;;;;;;;4.73;4.20;;;12.30;45.10;;;;;;5054238;28;20174;-81
2021/04/27 07:49:16;;;;;;;3.97;3.67;;;12.30;43.30;;;;;;5053752;28;20423;-81
2021/04/27 07:51:41;;;;;;;4.23;3.80;;;12.00;43.40;;;;;;5054312;28;20361;-81
2021/04/27 07:54:07;;;;;;;3.80;3.40;;;12.10;44.40;;;;;;5053821;28;20180;-81
2021/04/27 07:56:34;;;;;;;4.83;4.27;;;12.30;44.00;;;;;;5053555;28;20178;-81
2021/04/27 07:59:03;;;;;;;4.30;3.90;;;12.50;43.90;;;;;;5053511;28;20185;-81
2021/04/27 08:01:30;;;;;;;3.80;3.50;;;12.60;44.20;;;;;;5047682;28;20419;-81
2021/04/27 08:03:56;;;;;;;3.97;3.40;;;12.70;43.40;;;;;;5034177;28;20602;-82
2021/04/27 08:06:22;;;;;;;4.50;4.10;;;12.70;43.60;;;;;;5033801;28;20511;-81
2021/04/27 08:08:47;;;;;;;3.90;3.60;;;12.90;44.90;;;;;;5045052;28;20948;-81
2021/04/27 08:11:14;;;;;;;5.13;4.80;;;13.00;43.80;;;;;;5052949;28;20653;-81
2021/04/27 08:13:39;;;;;;;5.17;4.77;;;13.00;42.40;;;;;;5054106;28;20271;-80
2021/04/27 08:16:05;;;;;;;7.30;4.30;;;13.20;43.20;;;;;;5052766;28;20405;-80
2021/04/27 08:18:31;;;;;;;3.43;3.13;;;13.20;42.30;;;;;;5053863;28;20529;-80
2021/04/27 08:20:58;;;;;;;5.00;4.80;;;13.30;42.00;;;;;;5053562;28;20174;-80
2021/04/27 08:23:24;;;;;;;3.70;3.40;;;13.50;43.90;;;;;;5039161;28;20486;-80
2021/04/27 08:25:49;;;;;;;5.13;4.73;;;13.50;41.40;;;;;;5073513;28;20392;-81
2021/04/27 08:28:15;;;;;;;3.80;3.60;;;13.50;42.30;;;;;;5072963;28;20184;-81
2021/04/27 08:30:41;;;;;;;3.60;3.30;;;13.70;44.30;;;;;;5073434;28;20204;-80
2021/04/27 08:33:07;;;;;;;3.20;3.00;;;14.10;43.60;;;;;;5073045;28;20170;-81
2021/04/27 08:35:32;;;;;;;5.90;5.40;;;14.10;43.20;;;;;;5073630;28;20539;-81
2021/04/27 08:37:58;;;;;;;3.70;3.40;;;14.30;42.70;;;;;;5073247;28;20488;-81
2021/04/27 08:40:24;;;;;;;4.43;4.00;;;14.40;43.10;;;;;;5073618;28;20203;-81
2021/04/27 08:42:50;;;;;;;3.97;3.40;;;14.60;43.90;;;;;;5073296;28;20582;-81
2021/04/27 08:45:18;;;;;;;6.00;5.70;;;14.70;43.50;;;;;;5072389;28;20544;-81
2021/04/27 08:47:45;;;;;;;3.60;3.33;;;14.90;42.20;;;;;;5073400;28;20442;-81
2021/04/27 08:50:12;;;;;;;4.90;4.50;;;15.00;40.80;;;;;;5072536;28;20443;-81
2021/04/27 08:52:39;;;;;;;3.97;3.67;;;14.90;40.30;;;;;;5073060;28;20490;-80
2021/04/27 08:55:06;;;;;;;5.43;5.13;;;15.00;39.50;;;;;;5072590;28;20415;-81
2021/04/27 08:57:34;;;;;;;4.13;3.83;;;14.80;40.30;;;;;;5073214;28;20910;-80
2021/04/27 09:00:01;;;;;;;5.70;5.30;;;14.80;39.40;;;;;;5072880;28;20442;-81
2021/04/27 09:02:29;;;;;;;4.13;3.93;;;15.00;42.00;;;;;;5073305;28;20408;-81
2021/04/27 09:04:55;;;;;;;4.70;4.30;;;15.30;42.40;;;;;;5072968;28;20411;-80
2021/04/27 09:07:22;;;;;;;3.00;2.60;;;15.60;41.90;;;;;;5072385;28;20408;-80
2021/04/27 09:09:52;;;;;;;3.53;3.20;;;15.60;40.60;;;;;;5072746;28;20177;-80
2021/04/27 09:12:27;;;;;;;3.13;2.93;;;15.80;40.50;;;;;;5072586;28;20412;-80
2021/04/27 09:14:55;;;;;;;2.70;2.50;;;16.00;40.50;;;;;;5072897;28;20399;-80
2021/04/27 09:17:26;;;;;;;3.37;3.13;;;16.30;42.10;;;;;;5054443;28;21048;-80
2021/04/27 09:19:56;;;;;;;3.50;3.20;;;16.50;43.70;;;;;;5072197;28;20405;-80
2021/04/27 09:22:25;;;;;;;2.93;2.60;;;16.60;41.80;;;;;;5072513;28;20406;-80
2021/04/27 09:24:55;;;;;;;6.43;5.90;;;16.90;41.40;;;;;;5056841;28;20462;-80
2021/04/27 09:27:28;;;;;;;4.40;4.07;;;17.10;40.30;;;;;;5052351;28;20431;-81
2021/04/27 09:29:55;;;;;;;5.37;5.07;;;17.20;39.20;;;;;;5052777;28;20395;-80
2021/04/27 09:32:35;;;;;;;3.37;3.07;;;17.10;37.90;;;;;;5052404;28;20784;-80
2021/04/27 09:35:28;;;;;;;4.00;3.70;;;17.00;38.90;;;;;;5052677;28;20403;-80
2021/04/27 09:38:16;;;;;;;3.23;3.03;;;17.10;38.00;;;;;;5052668;28;20506;-80
2021/04/27 09:40:53;;;;;;;3.47;3.17;;;17.30;40.00;;;;;;5052647;28;20420;-81
2021/04/27 09:43:29;;;;;;;3.07;2.80;;;17.50;40.10;;;;;;5052257;28;20407;-80
2021/04/27 09:45:56;;;;;;;2.90;2.80;;;17.60;38.60;;;;;;5052610;28;20396;-81
2021/04/27 09:48:36;;;;;;;3.87;3.57;;;17.80;39.20;;;;;;5051828;28;20408;-80
2021/04/27 09:51:19;;;;;;;4.20;3.90;;;17.80;36.00;;;;;;5052479;28;20463;-80
2021/04/27 09:53:57;;;;;;;4.00;3.80;;;17.80;39.30;;;;;;5052187;28;20451;-81
2021/04/27 09:56:43;;;;;;;4.63;3.67;;;18.00;38.70;;;;;;5051873;28;20583;-81
2021/04/27 09:59:14;;;;;;;4.03;3.83;;;18.20;41.20;;;;;;5051434;28;20408;-81
2021/04/27 10:01:45;;;;;;;3.70;3.20;;;18.30;39.10;;;;;;5052370;28;20868;-81
2021/04/27 10:04:12;;;;;;;4.23;3.83;;;18.40;38.60;;;;;;5051783;28;20454;-81
2021/04/27 10:06:41;;;;;;;3.40;3.20;;;18.60;41.20;;;;;;5052317;28;20409;-81
2021/04/27 10:09:08;;;;;;;4.73;4.43;;;18.60;38.00;;;;;;5051585;28;20474;-81
2021/04/27 10:11:35;;;;;;;4.17;3.97;;;18.70;38.90;;;;;;5052271;28;20452;-81
2021/04/27 10:14:03;;;;;;;5.37;5.07;;;18.70;40.60;;;;;;5052200;28;20405;-81
2021/04/27 10:16:29;;;;;;;4.23;3.80;;;18.80;38.20;;;;;;5051869;28;20434;-81
2021/04/27 10:18:56;;;;;;;4.33;4.13;;;18.90;36.20;;;;;;5052215;28;20457;-81
2021/04/27 10:21:22;;;;;;;4.50;4.20;;;19.00;37.90;;;;;;5051256;28;20400;-81
2021/04/27 10:23:50;;;;;;;6.50;6.10;;;19.00;36.50;;;;;;5052098;28;20467;-80
2021/04/27 10:26:25;;;;;;;4.40;4.10;;;18.70;38.00;;;;;;5051527;28;20435;-81
2021/04/27 10:29:05;;;;;;;5.57;5.23;;;18.80;40.50;;;;;;5052088;28;20400;-81
2021/04/27 10:31:37;;;;;;;3.80;3.60;;;19.00;41.60;;;;;;5055467;28;20889;-81
2021/04/27 10:34:12;;;;;;;5.20;4.80;;;19.10;38.20;;;;;;5055855;28;20397;-81
2021/04/27 10:36:49;;;;;;;4.57;4.10;;;19.10;38.40;;;;;;5055786;28;20392;-81
2021/04/27 10:39:17;;;;;;;3.70;3.50;;;19.30;39.10;;;;;;5055135;28;20416;-81
2021/04/27 10:41:56;;;;;;;4.70;4.33;;;19.10;39.30;;;;;;5055408;28;20414;-80
2021/04/27 10:44:24;;;;;;;4.57;4.27;;;19.30;37.90;;;;;;5055147;28;20388;-81
2021/04/27 10:46:56;;;;;;;5.07;4.60;;;19.40;40.60;;;;;;5055575;28;20499;-81
2021/04/27 10:49:34;;;;;;;4.70;4.40;;;19.60;37.30;;;;;;5055210;28;20507;-81
2021/04/27 10:52:02;;;;;;;4.00;3.80;;;19.70;38.30;;;;;;5055228;28;20454;-81
2021/04/27 10:54:35;;;;;;;4.57;4.17;;;19.70;39.70;;;;;;5054413;28;20478;-81
2021/04/27 10:57:04;;;;;;;4.60;4.20;;;19.80;37.50;;;;;;5055476;28;20896;-81
2021/04/27 10:59:47;;;;;;;4.70;3.90;;;19.90;37.60;;;;;;5054733;28;20427;-81
2021/04/27 11:02:17;;;;;;;4.87;4.47;;;19.80;35.30;;;;;;5054760;28;20392;-81
2021/04/27 11:04:45;;;;;;;4.87;4.47;;;19.90;35.70;;;;;;5055311;28;20412;-81
2021/04/27 11:07:11;;;;;;;4.47;4.07;;;20.00;35.30;;;;;;5054640;28;20413;-81
2021/04/27 11:09:38;;;;;;;6.47;6.10;;;20.10;36.20;;;;;;5055082;28;20408;-81
2021/04/27 11:12:32;;;;;;;5.10;4.70;;;20.10;37.50;;;;;;5055075;28;20525;-81
2021/04/27 11:15:07;;;;;;;5.03;4.73;;;20.30;36.20;;;;;;5037041;28;20828;-81
2021/04/27 11:17:34;;;;;;;4.47;4.13;;;20.20;36.20;;;;;;5054947;28;20412;-81
2021/04/27 11:20:03;;;;;;;6.30;5.87;;;20.20;37.70;;;;;;5055000;28;20408;-81
2021/04/27 11:22:32;;;;;;;6.87;5.30;;;20.40;38.30;;;;;;5054181;28;20404;-81
2021/04/27 11:25:04;;;;;;;5.30;4.90;;;20.50;39.80;;;;;;5066291;28;20448;-81
2021/04/27 11:27:32;;;;;;;6.57;6.17;;;20.50;35.90;;;;;;5074354;28;20406;-81
2021/04/27 11:30:04;;;;;;;4.30;4.00;;;20.50;35.10;;;;;;5074848;28;20478;-81
2021/04/27 11:32:32;;;;;;;4.80;4.10;;;20.50;35.40;;;;;;5074160;28;20416;-81
2021/04/27 11:35:12;;;;;;;4.37;4.00;;;20.30;35.40;;;;;;5074713;28;20396;-81
2021/04/27 11:37:40;;;;;;;5.63;5.20;;;20.20;35.70;;;;;;5074775;28;20411;-81
2021/04/27 11:40:22;;;;;;;5.20;4.80;;;20.30;35.80;;;;;;5074328;28;20416;-81
2021/04/27 11:43:03;;;;;;;4.93;4.63;;;20.30;38.20;;;;;;5073948;28;20464;-81
2021/04/27 11:45:37;;;;;;;4.07;3.77;;;20.50;37.40;;;;;;5073863;28;20408;-81
2021/04/27 11:48:04;;;;;;;4.00;3.80;;;20.50;36.80;;;;;;5074726;28;20795;-81
2021/04/27 11:50:32;;;;;;;4.73;4.33;;;20.50;33.80;;;;;;5073690;28;20846;-81
2021/04/27 11:53:04;;;;;;;4.70;4.20;;;20.60;35.10;;;;;;5074277;28;20411;-81
2021/04/27 11:55:45;;;;;;;4.17;3.97;;;20.60;37.70;;;;;;5073788;28;20675;-81
2021/04/27 11:58:21;;;;;;;4.43;4.13;;;20.60;34.60;;;;;;5074121;28;20422;-81
2021/04/27 12:00:53;;;;;;;4.43;4.23;;;20.60;36.50;;;;;;5073970;28;20871;-81
2021/04/27 12:03:40;;;;;;;5.40;5.00;;;20.50;37.00;;;;;;5072368;28;20901;-81
2021/04/27 12:06:05;;;;;;;4.67;4.37;;;20.40;36.00;;;;;;5074102;28;20403;-81
2021/04/27 12:08:35;;;;;;;5.13;4.70;;;20.40;37.60;;;;;;5073025;28;20432;-81
2021/04/27 12:11:14;;;;;;;4.23;4.03;;;20.40;37.70;;;;;;5073830;28;20218;-81
2021/04/27 12:13:46;;;;;;;7.00;4.17;;;20.50;37.00;;;;;;5074119;28;20760;-81
2021/04/27 12:16:20;;;;;;;5.20;4.70;;;20.20;36.30;;;;;;5073002;28;20411;-81
2021/04/27 12:18:57;;;;;;;4.83;4.53;;;20.20;39.80;;;;;;5073839;28;20436;-81
2021/04/27 12:21:52;;;;;;;6.07;5.57;;;20.30;37.20;;;;;;5073360;28;20403;-81
2021/04/27 12:24:25;;;;;;;6.20;4.70;;;20.30;38.80;;;;;;5061977;28;20500;-81
2021/04/27 12:27:10;;;;;;;4.93;4.40;;;20.40;39.80;;;;;;5053804;28;20821;-81
2021/04/27 12:30:17;;;;;;;4.93;4.30;;;20.40;39.40;;;;;;5053046;28;20401;-81
2021/04/27 12:32:48;;;;;;;4.80;4.50;;;20.40;38.60;;;;;;5053632;28;20574;-81
2021/04/27 12:35:21;;;;;;;6.90;5.47;;;20.50;38.40;;;;;;5035309;28;20778;-81
2021/04/27 12:38:15;;;;;;;5.47;4.97;;;20.50;37.40;;;;;;5053547;28;20409;-81
2021/04/27 12:40:50;;;;;;;4.83;4.30;;;19.70;34.20;;;;;;5053192;28;20754;-81
2021/04/27 12:43:16;;;;;;;16.73;4.73;;;19.60;37.60;;;;;;5052924;28;20483;-81
2021/04/27 12:45:56;;;;;;;4.23;3.93;;;19.60;36.70;;;;;;5052964;28;20441;-81
2021/04/27 12:48:23;;;;;;;4.57;4.27;;;19.80;38.80;;;;;;5052840;28;20408;-81
2021/04/27 12:50:52;;;;;;;5.00;4.60;;;19.70;36.80;;;;;;5053300;28;20545;-81
2021/04/27 12:53:19;;;;;;;5.37;4.83;;;19.80;37.80;;;;;;5051780;28;20549;-81
2021/04/27 12:55:50;;;;;;;4.83;4.37;;;19.80;37.90;;;;;;5052828;28;20404;-81
2021/04/27 12:58:24;;;;;;;5.70;5.10;;;19.90;37.60;;;;;;5033905;28;20416;-81